01:28 Laufen Moetz - Haiming - Silz - Staudach - Moetz PLUS
Ort Moetz Datum 23.08.2015 16:36:48
Kategorie Strasse
Distanz 19,08 Kilometer Steigung 38,0 Meter Gefälle -47,0 Meter
Gesamt Zeit 01:28:14 Aktiv 01:28:14 Pause 00:00:00
Durchs. Tempo 00:04:37 min/km Tempo max. 00:04:13 min/km Tempo min. 00:06:13 min/km
Kalorien 0 Durchs. HF 134 BPM HF max. 170 BPM
Wetter 24 °C PartClouds Min/Max: 23,3 °C/24,4 °C; Druck: 1007,7 mbar; Rel. Feuchte: 49,9%; Taupunkt: 12,0 °C; Windgeschwindigkeit: 9,7 km/h; Niederschlag: 0,0mm
Ausrüstung Mizuno - Ronin 5
Sigvaris - Sleeves & Socks
Nogler - Einlagen NEU 2
Notiz Moetz - Haiming - Silz - Staudach - Moetz PLUS ... trocken, feines Laufwetter, leicht windig, locker - Pulsmessung mit Fehler - korrigiert ... garmin connect
Splits
Distanz (km) Gesamt Zeit Split Zeit Split Tempo Split Tempo Höhenprofil (m)
1,00 00:04:56 00:04:56 00:04:56 12,2 -6,16
2,00 00:09:35 00:04:39 00:04:39 12,9 6,16
3,00 00:14:13 00:04:38 00:04:38 12,9 0,98
4,00 00:18:42 00:04:28 00:04:29 13,4 3,74
5,00 00:23:17 00:04:34 00:04:35 13,1 -1,12
6,00 00:27:53 00:04:35 00:04:36 13,1 3,46
7,00 00:32:25 00:04:31 00:04:32 13,2 -0,17
8,00 00:36:58 00:04:33 00:04:33 13,2 0,41
9,00 00:41:27 00:04:29 00:04:29 13,4 0,64
10,00 00:46:19 00:04:51 00:04:52 12,3 4,08
11,00 00:50:49 00:04:30 00:04:30 13,3 -4,92
12,00 00:55:20 00:04:30 00:04:31 13,3 -1,61
13,00 00:59:54 00:04:33 00:04:33 13,2 -5,50
14,00 01:04:27 00:04:33 00:04:34 13,1 -3,10
15,00 01:09:00 00:04:32 00:04:32 13,2 -8,51
16,00 01:13:38 00:04:38 00:04:38 12,9 -2,85
17,00 01:18:14 00:04:36 00:04:37 13,0 1,20
18,00 01:22:45 00:04:30 00:04:30 13,3 6,07
19,00 01:27:23 00:04:38 00:04:38 12,9 3,26
19,18 01:28:14 00:00:50 00:04:49 12,4 0,78